createdAt,value
2019-02-11T00:01:13.874Z,2.80
2019-02-11T00:03:42.374Z,2.62
2019-02-11T00:06:10.999Z,2.90
2019-02-11T00:08:39.555Z,2.92
2019-02-11T00:11:08.092Z,3.20
2019-02-11T00:13:36.584Z,2.80
2019-02-11T00:16:05.101Z,2.60
2019-02-11T00:18:33.593Z,2.60
2019-02-11T00:21:02.061Z,2.55
2019-02-11T00:23:30.527Z,2.80
2019-02-11T00:25:59.008Z,2.52
2019-02-11T00:28:27.471Z,2.60
2019-02-11T00:30:56.026Z,2.30
2019-02-11T00:33:24.571Z,2.47
2019-02-11T00:35:53.088Z,2.50
2019-02-11T00:38:21.653Z,2.30
2019-02-11T00:40:50.146Z,2.50
2019-02-11T00:43:19.439Z,2.20
2019-02-11T00:45:48.128Z,2.42
2019-02-11T00:48:16.720Z,2.30
2019-02-11T00:50:45.343Z,2.05
2019-02-11T00:53:13.887Z,2.45
2019-02-11T00:55:42.499Z,2.20
2019-02-11T00:58:10.997Z,2.08
2019-02-11T01:00:39.605Z,2.40
2019-02-11T01:03:08.066Z,2.08
2019-02-11T01:05:36.581Z,2.40
2019-02-11T01:08:05.078Z,2.52
2019-02-11T01:10:33.611Z,2.30
2019-02-11T01:13:02.179Z,2.30
2019-02-11T01:15:30.813Z,2.02
2019-02-11T01:17:59.315Z,2.17
2019-02-11T01:20:27.888Z,2.47
2019-02-11T01:22:56.467Z,2.25
2019-02-11T01:25:25.043Z,2.50
2019-02-11T01:27:53.550Z,2.70
2019-02-11T01:30:22.102Z,2.58
2019-02-11T01:32:50.559Z,2.55
2019-02-11T01:35:19.102Z,2.42
2019-02-11T01:37:47.643Z,2.08
2019-02-11T01:40:16.184Z,2.58
2019-02-11T01:42:44.712Z,2.47
2019-02-11T01:45:13.552Z,2.20
2019-02-11T01:47:42.141Z,2.37
2019-02-11T01:50:12.312Z,2.30
2019-02-11T01:52:40.754Z,2.08
2019-02-11T01:55:09.410Z,2.40
2019-02-11T01:57:37.944Z,2.30
2019-02-11T02:00:09.838Z,2.30
2019-02-11T02:02:38.394Z,2.10
2019-02-11T02:05:08.190Z,2.08
2019-02-11T02:07:36.769Z,2.10
2019-02-11T02:10:08.656Z,1.77
2019-02-11T02:12:37.234Z,2.12
2019-02-11T02:15:07.242Z,2.10
2019-02-11T02:17:35.812Z,2.00
2019-02-11T02:20:06.798Z,2.80
2019-02-11T02:22:35.328Z,2.10
2019-02-11T02:25:04.403Z,1.92
2019-02-11T02:27:32.901Z,2.00
2019-02-11T02:30:01.416Z,2.25
2019-02-11T02:32:29.964Z,2.70
2019-02-11T02:35:01.333Z,2.87
2019-02-11T02:37:29.940Z,2.90
2019-02-11T02:39:58.503Z,3.08
2019-02-11T02:42:26.996Z,3.45
2019-02-11T02:44:55.563Z,3.17
2019-02-11T02:47:24.155Z,3.30
2019-02-11T02:49:52.692Z,3.35
2019-02-11T02:52:21.184Z,3.30
2019-02-11T02:54:49.666Z,2.65
2019-02-11T02:57:19.135Z,3.02
2019-02-11T02:59:47.633Z,3.35
2019-02-11T03:02:16.191Z,3.62
2019-02-11T03:04:44.742Z,3.40
2019-02-11T03:07:13.296Z,3.17
2019-02-11T03:09:41.884Z,3.35
2019-02-11T03:12:10.356Z,3.10
2019-02-11T03:14:38.869Z,3.85
2019-02-11T03:17:07.414Z,3.35
2019-02-11T03:19:35.985Z,3.35
2019-02-11T03:22:04.521Z,3.70
2019-02-11T03:24:33.113Z,3.60
2019-02-11T03:27:01.695Z,3.80
2019-02-11T03:29:30.314Z,3.80
2019-02-11T03:31:59.947Z,4.20
2019-02-11T03:34:28.681Z,3.65
2019-02-11T03:36:57.223Z,3.90
2019-02-11T03:39:26.883Z,3.62
2019-02-11T03:41:55.342Z,3.20
2019-02-11T03:44:23.879Z,3.05
2019-02-11T03:46:52.485Z,3.55
2019-02-11T03:49:21.014Z,3.27
2019-02-11T03:51:49.587Z,2.80
2019-02-11T03:54:18.206Z,3.12
2019-02-11T03:56:46.781Z,3.10
2019-02-11T03:59:15.357Z,3.22
2019-02-11T04:01:43.918Z,3.17
2019-02-11T04:04:12.461Z,3.62
2019-02-11T04:06:40.909Z,3.33
2019-02-11T04:09:09.524Z,2.90
2019-02-11T04:11:38.113Z,2.98
2019-02-11T04:14:06.630Z,2.90
2019-02-11T04:16:35.092Z,2.87
2019-02-11T04:19:03.595Z,3.15
2019-02-11T04:21:32.065Z,2.87
2019-02-11T04:24:00.598Z,2.80
2019-02-11T04:26:30.768Z,2.75
2019-02-11T04:28:59.263Z,3.15
2019-02-11T04:31:27.802Z,2.22
2019-02-11T04:33:58.270Z,2.80
2019-02-11T04:36:26.618Z,3.15
2019-02-11T04:38:55.217Z,3.05
2019-02-11T04:41:23.777Z,2.87
2019-02-11T04:43:52.396Z,2.95
2019-02-11T04:46:20.939Z,3.08
2019-02-11T04:48:49.467Z,3.40
2019-02-11T04:51:17.947Z,3.33
2019-02-11T04:53:46.466Z,2.90
2019-02-11T04:56:14.958Z,3.22
2019-02-11T04:58:43.561Z,3.10
2019-02-11T05:01:12.121Z,2.92
2019-02-11T05:03:40.725Z,2.60
2019-02-11T05:06:09.257Z,3.05
2019-02-11T05:08:37.828Z,3.35
2019-02-11T05:11:06.421Z,3.25
2019-02-11T05:13:34.994Z,3.77
2019-02-11T05:16:03.527Z,2.95
2019-02-11T05:18:32.124Z,3.60
2019-02-11T05:21:00.722Z,3.47
2019-02-11T05:23:29.212Z,3.17
2019-02-11T05:25:57.790Z,2.95
2019-02-11T05:28:26.360Z,3.72
2019-02-11T05:30:54.891Z,3.35
2019-02-11T05:33:23.449Z,3.15
2019-02-11T05:35:52.093Z,3.70
2019-02-11T05:38:20.645Z,2.83
2019-02-11T05:40:49.275Z,3.83
2019-02-11T05:43:17.816Z,3.60
2019-02-11T05:45:46.432Z,2.50
2019-02-11T05:48:14.957Z,3.45
2019-02-11T05:50:43.580Z,4.03
2019-02-11T05:53:12.169Z,3.83
2019-02-11T05:55:40.758Z,4.25
2019-02-11T05:58:09.291Z,3.75
2019-02-11T06:00:37.877Z,3.58
2019-02-11T06:03:06.456Z,3.55
2019-02-11T06:05:35.015Z,4.10
2019-02-11T06:08:03.594Z,3.75
2019-02-11T06:10:32.161Z,3.35
2019-02-11T06:13:00.696Z,3.55
2019-02-11T06:15:29.222Z,2.90
2019-02-11T06:17:57.683Z,3.75
2019-02-11T06:20:26.222Z,4.33
2019-02-11T06:22:54.809Z,4.15
2019-02-11T06:25:23.465Z,5.42
2019-02-11T06:27:52.046Z,5.00
2019-02-11T06:30:20.631Z,4.37
2019-02-11T06:32:49.237Z,4.40
2019-02-11T06:35:17.770Z,4.90
2019-02-11T06:37:46.386Z,6.08
2019-02-11T06:40:15.144Z,5.15
2019-02-11T06:42:43.731Z,6.70
2019-02-11T06:45:13.452Z,4.55
2019-02-11T06:47:42.139Z,5.28
2019-02-11T06:50:13.709Z,5.67
2019-02-11T06:52:42.314Z,5.80
2019-02-11T06:55:14.994Z,5.47
2019-02-11T06:57:43.641Z,5.30
2019-02-11T07:00:14.164Z,5.28
2019-02-11T07:02:42.700Z,5.00
2019-02-11T07:05:11.417Z,5.75
2019-02-11T07:07:39.911Z,5.40
2019-02-11T07:10:10.985Z,5.95
2019-02-11T07:12:39.518Z,5.60
2019-02-11T07:15:21.220Z,5.87
2019-02-11T07:17:43.054Z,5.15
2019-02-11T07:20:11.745Z,5.62
2019-02-11T07:22:40.245Z,4.47
2019-02-11T07:25:10.170Z,4.75
2019-02-11T07:27:39.695Z,5.17
2019-02-11T07:30:13.253Z,5.00
2019-02-11T07:32:41.833Z,4.80
2019-02-11T07:35:10.466Z,4.70
2019-02-11T07:37:39.119Z,4.80
2019-02-11T07:40:11.008Z,5.33
2019-02-11T07:42:45.214Z,4.45
2019-02-11T07:45:29.936Z,3.75
2019-02-11T07:47:55.464Z,4.75
2019-02-11T07:50:26.217Z,4.08
2019-02-11T07:52:56.739Z,3.75
2019-02-11T07:55:28.870Z,4.30
2019-02-11T07:57:58.232Z,4.30
2019-02-11T08:00:27.905Z,4.17
2019-02-11T08:02:57.825Z,4.28
2019-02-11T08:05:28.180Z,4.22
2019-02-11T08:07:57.868Z,5.20
2019-02-11T08:10:31.198Z,4.75
2019-02-11T08:13:03.388Z,5.08
2019-02-11T08:15:38.688Z,4.30
2019-02-11T08:18:14.267Z,3.90
2019-02-11T08:20:49.586Z,4.45
2019-02-11T08:23:23.044Z,4.53
2019-02-11T08:25:53.572Z,4.45
2019-02-11T08:28:24.778Z,5.20
2019-02-11T08:31:01.210Z,4.45
2019-02-11T08:33:32.928Z,5.30
2019-02-11T09:04:56.254Z,6.50
2019-02-11T09:10:44.566Z,6.70
2019-02-11T09:20:35.089Z,6.50
2019-02-11T09:23:43.724Z,6.30
2019-02-11T09:26:16.626Z,6.50
2019-02-11T09:28:47.735Z,6.42
2019-02-11T09:31:20.453Z,6.92
2019-02-11T09:33:50.311Z,6.78
2019-02-11T09:36:21.954Z,6.92
2019-02-11T09:38:52.068Z,7.30
2019-02-11T09:41:22.674Z,7.20
2019-02-11T09:43:55.008Z,7.25
2019-02-11T09:46:26.173Z,8.38
2019-02-11T09:48:56.567Z,6.85
2019-02-11T09:51:32.734Z,7.40
2019-02-11T09:54:02.942Z,6.78
2019-02-11T09:56:33.169Z,6.58
2019-02-11T09:59:06.739Z,7.00
2019-02-11T10:01:39.995Z,5.85
2019-02-11T10:04:10.537Z,5.90
2019-02-11T10:06:39.382Z,7.55
2019-02-11T10:09:11.968Z,7.17
2019-02-11T10:11:42.025Z,6.85
2019-02-11T10:14:11.002Z,6.90
2019-02-11T10:16:45.656Z,6.42
2019-02-11T10:19:15.905Z,6.62
2019-02-11T10:21:52.823Z,6.80
2019-02-11T10:24:23.066Z,6.70
2019-02-11T10:26:55.129Z,6.30
2019-02-11T10:29:27.560Z,6.22
2019-02-11T10:31:57.009Z,6.85
2019-02-11T10:34:32.918Z,6.40
2019-02-11T10:37:03.782Z,5.70
2019-02-11T10:39:34.914Z,5.80
2019-02-11T10:42:05.516Z,5.75
2019-02-11T10:44:41.257Z,5.95
2019-02-11T10:47:11.094Z,5.65
2019-02-11T10:49:39.887Z,5.33
2019-02-11T10:52:14.757Z,5.85
2019-02-11T10:54:44.488Z,5.22
2019-02-11T10:57:14.310Z,5.10
2019-02-11T10:59:42.939Z,5.67
2019-02-11T11:02:11.582Z,4.72
2019-02-11T11:04:40.073Z,5.50
2019-02-11T11:07:08.697Z,5.67
2019-02-11T11:09:37.432Z,5.53
2019-02-11T11:12:08.200Z,4.30
2019-02-11T11:14:36.991Z,3.95
2019-02-11T11:17:07.282Z,5.05
2019-02-11T11:19:36.023Z,4.60
2019-02-11T11:22:05.014Z,4.65
2019-02-11T11:24:35.270Z,5.17
2019-02-11T11:27:04.343Z,4.67
2019-02-11T11:29:36.074Z,4.33
2019-02-11T11:32:09.275Z,4.42
2019-02-11T11:34:38.846Z,4.78
2019-02-11T11:37:07.616Z,5.37
2019-02-11T11:39:38.237Z,4.90
2019-02-11T11:42:08.678Z,5.05
2019-02-11T11:44:37.503Z,5.20
2019-02-11T11:47:06.367Z,5.53
2019-02-11T11:49:35.466Z,5.83
2019-02-11T11:52:08.023Z,6.10
2019-02-11T11:54:36.938Z,6.70
2019-02-11T11:57:08.889Z,6.22
2019-02-11T11:59:37.512Z,7.00
2019-02-11T12:02:06.139Z,6.42
2019-02-11T12:04:34.729Z,7.75
2019-02-11T12:07:03.583Z,6.53
2019-02-11T12:09:32.170Z,6.55
2019-02-11T12:12:00.700Z,6.25
2019-02-11T12:14:29.276Z,5.85
2019-02-11T12:17:02.809Z,5.65
2019-02-11T12:19:28.072Z,5.80
2019-02-11T12:21:56.649Z,5.03
2019-02-11T12:24:25.190Z,5.50
2019-02-11T12:26:53.768Z,5.80
2019-02-11T12:29:22.307Z,4.95
2019-02-11T12:31:50.955Z,5.10
2019-02-11T12:34:19.510Z,5.42
2019-02-11T12:36:48.152Z,5.70
2019-02-11T12:39:16.947Z,4.80
2019-02-11T12:41:45.455Z,5.40
2019-02-11T12:44:14.106Z,5.40
2019-02-11T12:46:42.656Z,5.10
2019-02-11T12:49:11.311Z,5.60
2019-02-11T12:51:39.948Z,5.95
2019-02-11T12:54:08.494Z,5.90
2019-02-11T12:56:37.044Z,6.00
2019-02-11T12:59:05.690Z,5.55
2019-02-11T13:01:34.323Z,5.90
2019-02-11T13:04:02.917Z,6.00
2019-02-11T13:06:31.468Z,5.45
2019-02-11T13:09:00.033Z,4.90
2019-02-11T13:11:28.573Z,5.90
2019-02-11T13:13:57.163Z,4.92
2019-02-11T13:16:25.692Z,4.30
2019-02-11T13:18:54.264Z,4.30
2019-02-11T13:21:22.812Z,4.20
2019-02-11T13:23:51.384Z,4.40
2019-02-11T13:26:19.931Z,4.45
2019-02-11T13:28:48.501Z,4.40
2019-02-11T13:31:16.969Z,4.10
2019-02-11T13:33:45.577Z,4.20
2019-02-11T13:36:14.226Z,4.30
2019-02-11T13:38:42.814Z,4.30
2019-02-11T13:41:11.354Z,4.00
2019-02-11T13:43:39.881Z,4.75
2019-02-11T13:46:08.453Z,4.17
2019-02-11T13:48:36.995Z,4.72
2019-02-11T13:51:05.637Z,4.40
2019-02-11T13:53:34.261Z,4.35
2019-02-11T13:56:05.457Z,4.75
2019-02-11T13:58:34.145Z,3.90
2019-02-11T14:01:02.852Z,4.05
2019-02-11T14:03:31.445Z,3.67
2019-02-11T14:06:00.026Z,3.77
2019-02-11T14:08:28.688Z,4.10
2019-02-11T14:10:57.265Z,4.47
2019-02-11T14:13:25.881Z,4.10
2019-02-11T14:15:54.521Z,4.00
2019-02-11T14:18:23.210Z,4.30
2019-02-11T14:20:51.671Z,4.30
2019-02-11T14:23:20.270Z,3.85
2019-02-11T14:25:48.776Z,3.95
2019-02-11T14:28:17.530Z,4.17
2019-02-11T14:30:46.199Z,3.85
2019-02-11T14:33:14.857Z,4.12
2019-02-11T14:35:43.397Z,3.72
2019-02-11T14:38:11.867Z,3.50
2019-02-11T14:40:40.462Z,3.90
2019-02-11T14:43:09.042Z,3.75
2019-02-11T14:45:37.589Z,3.80
2019-02-11T14:48:06.239Z,3.83
2019-02-11T14:50:34.817Z,3.50
2019-02-11T14:53:03.360Z,3.40
2019-02-11T14:55:31.866Z,3.85
2019-02-11T14:58:00.460Z,4.00
2019-02-11T15:00:29.019Z,3.83
2019-02-11T15:02:57.789Z,3.50
2019-02-11T15:05:26.457Z,3.58
2019-02-11T15:07:54.917Z,3.47
2019-02-11T15:10:23.433Z,3.40
2019-02-11T15:12:52.011Z,3.50
2019-02-11T15:15:20.589Z,3.10
2019-02-11T15:17:49.121Z,3.33
2019-02-11T15:20:17.896Z,3.80
2019-02-11T15:22:46.413Z,3.87
2019-02-11T15:25:16.824Z,3.75
2019-02-11T15:27:45.298Z,3.22
2019-02-11T15:30:15.897Z,3.35
2019-02-11T15:32:44.474Z,3.45
2019-02-11T15:35:13.103Z,3.85
2019-02-11T15:37:41.666Z,3.20
2019-02-11T15:40:22.146Z,3.52
2019-02-11T15:42:50.943Z,3.52
2019-02-11T15:45:19.516Z,4.20
2019-02-11T15:47:48.087Z,3.85
2019-02-11T15:50:17.794Z,3.75
2019-02-11T15:52:46.372Z,3.70
2019-02-11T15:55:19.876Z,3.83
2019-02-11T15:57:48.446Z,4.03
2019-02-11T16:00:22.677Z,2.85
2019-02-11T16:02:51.839Z,3.55
2019-02-11T16:05:20.642Z,4.08
2019-02-11T16:07:49.265Z,3.80
2019-02-11T16:10:26.387Z,3.50
2019-02-11T16:12:55.049Z,4.45
2019-02-11T16:15:23.741Z,3.90
2019-02-11T16:17:52.391Z,3.65
2019-02-11T16:20:21.050Z,3.67
2019-02-11T16:22:49.675Z,3.35
2019-02-11T16:25:18.336Z,3.83
2019-02-11T16:27:46.994Z,4.12
2019-02-11T16:30:20.215Z,4.22
2019-02-11T16:32:48.871Z,3.70
2019-02-11T16:35:18.287Z,4.12
2019-02-11T16:37:46.858Z,4.70
2019-02-11T16:40:24.291Z,3.98
2019-02-11T16:42:52.822Z,4.40
2019-02-11T16:45:21.377Z,4.50
2019-02-11T16:47:49.957Z,4.45
2019-02-11T16:50:18.703Z,4.20
2019-02-11T16:52:47.342Z,3.80
2019-02-11T16:55:15.895Z,4.20
2019-02-11T16:57:44.468Z,3.62
2019-02-11T17:00:20.422Z,4.20
2019-02-11T17:02:49.040Z,4.22
2019-02-11T17:05:17.507Z,4.75
2019-02-11T17:07:46.089Z,4.15
2019-02-11T17:10:15.382Z,3.80
2019-02-11T17:12:44.036Z,4.45
2019-02-11T17:15:14.589Z,4.10
2019-02-11T17:17:43.154Z,4.30
2019-02-11T17:20:15.871Z,3.87
2019-02-11T17:22:45.912Z,4.03
2019-02-11T17:25:15.402Z,3.95
2019-02-11T17:27:44.126Z,4.65
2019-02-11T17:30:27.333Z,4.60
2019-02-11T17:32:55.836Z,4.30
2019-02-11T17:35:24.356Z,4.25
2019-02-11T17:37:52.919Z,4.35
2019-02-11T17:40:21.496Z,4.53
2019-02-11T17:42:50.080Z,3.83
2019-02-11T17:45:26.605Z,4.65
2019-02-11T17:47:55.219Z,4.60
2019-02-11T17:50:23.921Z,4.72
2019-02-11T17:52:55.334Z,4.15
2019-02-11T17:55:23.809Z,3.65
2019-02-11T17:57:52.399Z,4.42
2019-02-11T18:00:28.289Z,4.28
2019-02-11T18:02:56.826Z,4.30
2019-02-11T18:05:25.324Z,4.55
2019-02-11T18:07:53.892Z,4.83
2019-02-11T18:10:22.360Z,4.90
2019-02-11T18:12:50.964Z,4.58
2019-02-11T18:15:19.417Z,5.30
2019-02-11T18:17:47.912Z,4.78
2019-02-11T18:20:16.504Z,4.60
2019-02-11T18:22:44.964Z,4.70
2019-02-11T18:25:13.676Z,3.83
2019-02-11T18:27:42.219Z,5.03
2019-02-11T18:30:15.855Z,4.83
2019-02-11T18:32:44.649Z,4.53
2019-02-11T18:35:15.037Z,4.55
2019-02-11T18:37:43.592Z,3.83
2019-02-11T18:40:15.581Z,4.03
2019-02-11T18:42:44.270Z,3.87
2019-02-11T18:45:16.671Z,4.00
2019-02-11T18:47:45.298Z,4.05
2019-02-11T18:50:14.938Z,3.80
2019-02-11T18:52:43.550Z,3.90
2019-02-11T18:55:13.981Z,3.98
2019-02-11T18:57:42.659Z,3.25
2019-02-11T19:00:14.172Z,4.20
2019-02-11T19:02:42.829Z,3.98
2019-02-11T19:05:18.055Z,3.77
2019-02-11T19:07:46.679Z,3.98
2019-02-11T19:10:20.032Z,3.60
2019-02-11T19:12:48.640Z,3.95
2019-02-11T19:15:18.484Z,3.45
2019-02-11T19:17:47.078Z,3.33
2019-02-11T19:20:16.582Z,3.67
2019-02-11T19:22:45.233Z,3.50
2019-02-11T19:25:14.002Z,3.72
2019-02-11T19:27:42.591Z,4.10
2019-02-11T19:30:22.447Z,3.60
2019-02-11T19:32:51.196Z,3.75
2019-02-11T19:35:19.715Z,3.90
2019-02-11T19:37:48.301Z,4.25
2019-02-11T19:40:21.479Z,3.80
2019-02-11T19:42:50.271Z,3.87
2019-02-11T19:45:21.205Z,3.85
2019-02-11T19:47:53.220Z,4.30
2019-02-11T19:50:22.424Z,4.50
2019-02-11T19:52:51.977Z,4.08
2019-02-11T19:55:22.727Z,3.98
2019-02-11T19:57:51.391Z,3.65
2019-02-11T20:00:22.064Z,4.20
2019-02-11T20:02:50.879Z,3.52
2019-02-11T20:05:19.601Z,4.30
2019-02-11T20:07:50.908Z,3.87
2019-02-11T20:10:21.632Z,4.20
2019-02-11T20:12:50.338Z,4.03
2019-02-11T20:15:27.500Z,4.10
2019-02-11T20:17:56.205Z,3.83
2019-02-11T20:20:27.287Z,4.28
2019-02-11T20:22:55.854Z,4.10
2019-02-11T20:25:24.456Z,4.90
2019-02-11T20:27:52.978Z,4.90
2019-02-11T20:30:26.837Z,4.80
2019-02-11T20:32:55.346Z,4.62
2019-02-11T20:35:24.328Z,4.55
2019-02-11T20:37:52.811Z,4.85
2019-02-11T20:40:23.977Z,4.85
2019-02-11T20:42:52.450Z,4.40
2019-02-11T20:45:24.014Z,5.15
2019-02-11T20:47:52.660Z,4.50
2019-02-11T20:50:21.175Z,5.40
2019-02-11T20:52:49.694Z,5.20
2019-02-11T20:55:18.250Z,4.70
2019-02-11T20:57:49.070Z,4.60
2019-02-11T21:00:22.619Z,4.65
2019-02-11T21:02:51.315Z,4.83
2019-02-11T21:05:20.020Z,4.60
2019-02-11T21:07:48.545Z,5.85
2019-02-11T21:10:20.184Z,4.80
2019-02-11T21:12:48.822Z,5.28
2019-02-11T21:15:17.558Z,5.67
2019-02-11T21:17:47.378Z,5.22
2019-02-11T21:20:24.369Z,5.45
2019-02-11T21:22:55.260Z,4.55
2019-02-11T21:25:23.937Z,5.33
2019-02-11T21:27:52.547Z,5.22
2019-02-11T21:30:22.645Z,5.12
2019-02-11T21:32:52.169Z,5.75
2019-02-11T21:35:22.633Z,5.40
2019-02-11T21:37:52.179Z,4.70
2019-02-11T21:40:21.288Z,5.20
2019-02-11T21:42:52.929Z,4.40
2019-02-11T21:45:22.492Z,5.47
2019-02-11T21:47:51.874Z,4.67
2019-02-11T21:50:26.638Z,4.90
2019-02-11T21:52:54.320Z,4.92
2019-02-11T21:55:25.214Z,5.65
2019-02-11T21:57:56.890Z,5.12
2019-02-11T22:00:26.184Z,6.10
2019-02-11T22:02:56.416Z,6.10
2019-02-11T22:05:26.597Z,5.62
2019-02-11T22:07:55.888Z,5.47
2019-02-11T22:10:24.620Z,5.95
2019-02-11T22:12:53.087Z,6.47
2019-02-11T22:15:23.408Z,6.00
2019-02-11T22:17:55.753Z,6.50
2019-02-11T22:20:24.623Z,6.12
2019-02-11T22:22:54.875Z,5.60
2019-02-11T22:25:24.131Z,6.12
2019-02-11T22:27:54.831Z,6.15
2019-02-11T22:30:25.518Z,6.70
2019-02-11T22:32:55.812Z,6.22
2019-02-11T22:35:27.280Z,5.72
2019-02-11T22:37:57.199Z,6.58
2019-02-11T22:40:26.415Z,7.35
2019-02-11T22:42:58.184Z,6.47
2019-02-11T22:45:28.807Z,6.80
2019-02-11T22:47:59.027Z,6.10
2019-02-11T22:50:29.143Z,6.42
2019-02-11T22:53:06.154Z,7.15
2019-02-11T22:55:35.607Z,6.30
2019-02-11T22:58:05.627Z,7.15
2019-02-11T23:00:47.331Z,5.95
2019-02-11T23:03:27.047Z,6.55
2019-02-11T23:06:21.566Z,7.00
2019-02-11T23:08:50.943Z,6.75
2019-02-11T23:11:20.307Z,7.40
2019-02-11T23:13:50.378Z,6.92
2019-02-11T23:16:20.600Z,7.25
2019-02-11T23:18:50.677Z,6.72
2019-02-11T23:21:20.623Z,6.58
2019-02-11T23:23:50.124Z,7.20
2019-02-11T23:26:21.086Z,6.75
2019-02-11T23:28:55.212Z,7.10
2019-02-11T23:31:25.283Z,6.45
2019-02-11T23:33:54.504Z,6.30
2019-02-11T23:36:24.042Z,6.47
2019-02-11T23:38:54.204Z,6.70
2019-02-11T23:41:24.069Z,6.28
2019-02-11T23:43:53.489Z,6.28
2019-02-11T23:46:22.798Z,6.05
2019-02-11T23:48:52.801Z,6.50
2019-02-11T23:51:23.222Z,6.83
2019-02-11T23:53:52.567Z,6.15
2019-02-11T23:56:21.042Z,6.95
2019-02-11T23:58:50.846Z,7.45
